WetterOnline ( https://www.wetteronline.de )

Wetter aktuell Esthal

Aktuelles Wetter: Weinbiet/Pfalz (557m)

6-stündlich | Neueste Meldungen
Ortszeit Temperatur Wetter
So, 05.07. 8:00 17.4° C bedeckt
So, 05.07. 2:00 18.6° C bewölkt
Sa, 04.07. 20:00 21.7° C wolkig
Sa, 04.07. 14:00 22.1° C bedeckt
Sa, 04.07. 8:00 14.3° C bewölkt
Sa, 04.07. 2:00 13.5° C wolkig
Fr, 03.07. 20:00 20.2° C fast wolkenlos
Fr, 03.07. 14:00 21.0° C leicht bewölkt
Ortszeit Temperatur Wetter
So, 05.07. 12:30 19.1° C bedeckt
So, 05.07. 12:20 19.1° C bedeckt
So, 05.07. 12:10 19.1° C bedeckt
So, 05.07. 12:00 18.8° C bedeckt
So, 05.07. 11:50 18.8° C bedeckt
So, 05.07. 11:40 18.6° C bedeckt
So, 05.07. 11:30 18.5° C bewölkt
So, 05.07. 11:00 18.4° C bedeckt
Ortszeit Relative Feuchte Sichtweite
So, 05.07. 8:00 81% 10 km
So, 05.07. 2:00 68% 10 km
Sa, 04.07. 20:00 48% 10 km
Sa, 04.07. 14:00 44% 10 km
Sa, 04.07. 8:00 68% 10 km
Sa, 04.07. 2:00 72% 10 km
Fr, 03.07. 20:00 44% 10 km
Fr, 03.07. 14:00 42% 9 km
Ortszeit Relative Feuchte Sichtweite
So, 05.07. 12:30 79% 9 km
So, 05.07. 12:20 79% -
So, 05.07. 12:10 78% -
So, 05.07. 12:00 80% 10 km
So, 05.07. 11:50 80% -
So, 05.07. 11:40 82% -
So, 05.07. 11:30 82% 11 km
So, 05.07. 11:00 81% 9 km
Ortszeit Niederschlagsmenge Niederschlagsart
So, 05.07. 8:00 0.0 l/m2 in 12 Std. -
So, 05.07. 2:00 0.0 l/m2 in 6 Std. -
Sa, 04.07. 20:00 0.0 l/m2 in 12 Std. -
Sa, 04.07. 14:00 0.0 l/m2 in 6 Std. -
Sa, 04.07. 8:00 0.0 l/m2 in 12 Std. -
Sa, 04.07. 2:00 0.0 l/m2 in 6 Std. -
Fr, 03.07. 20:00 0.0 l/m2 in 12 Std. -
Fr, 03.07. 14:00 0.0 l/m2 in 6 Std. -
Ortszeit Niederschlagsmenge Niederschlagsart
So, 05.07. 12:30 0.0 l/m2 in 1 Std. -
So, 05.07. 12:20 keine Meldung -
So, 05.07. 12:10 keine Meldung -
So, 05.07. 12:00 0.0 l/m2 in 1 Std. -
So, 05.07. 11:50 keine Meldung -
So, 05.07. 11:40 keine Meldung -
So, 05.07. 11:30 0.0 l/m2 in 1 Std. -
So, 05.07. 11:00 0.0 l/m2 in 1 Std. Sprühregen
Ortszeit Stärke Spitze Richtung
km/h Bft. km/h Grad Sektor
So, 05.07. 8:00 29 5 61 240° SW
So, 05.07. 2:00 33 5 56 250° W
Sa, 04.07. 20:00 29 5 65 240° SW
Sa, 04.07. 14:00 31 5 63 220° SW
Sa, 04.07. 8:00 25 4 32 230° SW
Sa, 04.07. 2:00 22 4 32 270° W
Fr, 03.07. 20:00 22 4 50 260° W
Fr, 03.07. 14:00 28 4 46 240° SW
Ortszeit Stärke Spitze Richtung
km/h Bft. km/h Grad Sektor
So, 05.07. 12:30 35 5 57 250° W
So, 05.07. 12:20 35 5 - 250° W
So, 05.07. 12:10 40 6 - 250° W
So, 05.07. 12:00 40 6 61 250° W
So, 05.07. 11:50 40 6 - 250° W
So, 05.07. 11:40 36 5 - 250° W
So, 05.07. 11:30 31 5 61 250° W
So, 05.07. 11:00 44 6 65 240° SW
Ortszeit Untergrenze Bedeckung Gattung
total tief tief mittel hoch
So, 05.07. 8:00 480 m 8/8 8/8 - - -
So, 05.07. 2:00 780 m 8/8 7/8 - - -
Sa, 04.07. 20:00 6000 m 8/8 3/8 - - -
Sa, 04.07. 14:00 4800 m 8/8 8/8 - - -
Sa, 04.07. 8:00 6900 m 7/8 6/8 - - -
Sa, 04.07. 2:00 8700 m 8/8 0/8 - - -
Fr, 03.07. 20:00 1500 m 1/8 1/8 - - -
Fr, 03.07. 14:00 1410 m 5/8 2/8 - - -
Ortszeit Bedeckungsgrad in Achtel und Wolkenuntergrenze
So, 05.07. 12:30 7(480m) 7(630m) 8(810m)
So, 05.07. 12:20 7(480m) 7(630m) 8(810m)
So, 05.07. 12:10 7(480m) 7(660m) 8(810m)
So, 05.07. 12:00 7(420m) 8(660m) 8(810m)
So, 05.07. 11:50 7(420m) 8(660m)
So, 05.07. 11:40 7(390m) 7(510m) 8(690m)
So, 05.07. 11:30 7(390m) 7(720m)
So, 05.07. 11:00 7(450m) 8(750m)
Ortszeit Luftdruck NN (hPa) Tendenz (hPa in 3 Std.)
So, 05.07. 8:00 1016 + 0,2
So, 05.07. 2:00 1017 - 0,4
Sa, 04.07. 20:00 1016 - 0,3
Sa, 04.07. 14:00 1017 - 0,8
Sa, 04.07. 8:00 1020 + 0,6
Sa, 04.07. 2:00 1020 + 0,2
Fr, 03.07. 20:00 1018 - 0,1
Fr, 03.07. 14:00 1018 + 0,2
Ortszeit Luftdruck NN (hPa) Tendenz (hPa in 3 Std.)
So, 05.07. 12:30 1016 + 0,3
So, 05.07. 12:20 1016 keine Meldung
So, 05.07. 12:10 1016 keine Meldung
So, 05.07. 12:00 1016 + 0,3
So, 05.07. 11:50 1016 keine Meldung
So, 05.07. 11:40 1016 keine Meldung
So, 05.07. 11:30 1016 + 0,5
So, 05.07. 11:00 1016 0,0
Ortszeit Schneehöhe (cm)
So, 05.07. 8:00 -
So, 05.07. 2:00 -
Sa, 04.07. 20:00 -
Sa, 04.07. 14:00 -
Sa, 04.07. 8:00 -
Sa, 04.07. 2:00 -
Fr, 03.07. 20:00 -
Fr, 03.07. 14:00 -
Ortszeit Schneehöhe (cm)
So, 05.07. 12:30 -
So, 05.07. 12:20 -
So, 05.07. 12:10 -
So, 05.07. 12:00 -
So, 05.07. 11:50 -
So, 05.07. 11:40 -
So, 05.07. 11:30 -
So, 05.07. 11:00 -
Link zu dieser Seite / Seite empfehlen

Das Wetter in ...